Time;durP1;ratioP1;P1;durP2;ratioP2;P2;SDS_P1;SDS_P2;PMS_P1;PMS_P2;Temp;Humidity;BMP_temperature;BMP_pressure;BME280_temperature;BME280_humidity;BME280_pressure;Samples;Min_cycle;Max_cycle;Signal;HPM_P1;HPM_P2
2021/04/14 00:01:14;;;;;;;6.07;2.80;;;0.00;86.90;;;;;;5074957;28;20063;-79
2021/04/14 00:03:40;;;;;;;7.57;3.22;;;0.00;87.30;;;;;;5059025;28;20028;-80
2021/04/14 00:06:07;;;;;;;7.10;2.97;;;0.00;87.50;;;;;;5074837;28;20115;-78
2021/04/14 00:08:33;;;;;;;6.53;2.35;;;-0.10;87.50;;;;;;5077066;28;20065;-80
2021/04/14 00:11:00;;;;;;;7.68;2.83;;;-0.10;87.50;;;;;;5056594;28;20036;-81
2021/04/14 00:13:34;;;;;;;7.80;2.75;;;-0.20;87.50;;;;;;5073303;28;20382;-79
2021/04/14 00:16:00;;;;;;;9.10;2.30;;;-0.20;87.70;;;;;;5062728;28;20044;-79
2021/04/14 00:18:27;;;;;;;5.63;2.78;;;-0.20;87.60;;;;;;5058570;28;20055;-79
2021/04/14 00:20:53;;;;;;;5.32;2.35;;;-0.30;87.60;;;;;;5057073;28;20032;-82
2021/04/14 00:23:23;;;;;;;10.80;2.30;;;-0.30;87.70;;;;;;5070037;28;20044;-80
2021/04/14 00:25:51;;;;;;;8.13;2.15;;;-0.30;87.80;;;;;;5038182;28;20055;-79
2021/04/14 00:28:19;;;;;;;4.03;2.40;;;-0.30;88.10;;;;;;5060001;28;20044;-78
2021/04/14 00:30:45;;;;;;;3.20;2.05;;;-0.40;88.20;;;;;;5074496;28;20033;-79
2021/04/14 00:33:12;;;;;;;7.47;2.53;;;-0.40;88.30;;;;;;5071724;28;20554;-79
2021/04/14 00:35:37;;;;;;;5.78;3.13;;;-0.40;88.30;;;;;;5072440;28;20372;-80
2021/04/14 00:38:04;;;;;;;8.43;2.72;;;-0.40;88.30;;;;;;5053430;28;20052;-80
2021/04/14 00:40:34;;;;;;;5.15;2.70;;;-0.40;88.50;;;;;;5068792;28;20033;-79
2021/04/14 00:43:00;;;;;;;6.40;2.95;;;-0.50;88.50;;;;;;5078576;28;20065;-78
2021/04/14 00:45:28;;;;;;;8.80;2.97;;;-0.40;88.60;;;;;;5044671;28;20024;-80
2021/04/14 00:47:54;;;;;;;9.30;3.55;;;-0.50;88.70;;;;;;5073118;28;20040;-78
2021/04/14 00:50:25;;;;;;;12.10;3.25;;;-0.50;88.70;;;;;;5076898;28;20062;-81
2021/04/14 00:52:51;;;;;;;4.50;2.72;;;-0.50;89.60;;;;;;5053146;28;20400;-78
2021/04/14 00:55:19;;;;;;;9.48;3.63;;;-0.50;88.90;;;;;;5057371;28;20184;-80
2021/04/14 00:57:45;;;;;;;7.95;3.83;;;-0.50;89.00;;;;;;5084139;28;20020;-79
2021/04/14 01:00:18;;;;;;;10.15;4.10;;;-0.50;89.10;;;;;;5065751;28;20094;-78
2021/04/14 01:02:43;;;;;;;10.00;3.40;;;-0.50;89.20;;;;;;5066886;28;20040;-81
2021/04/14 01:05:14;;;;;;;6.40;3.40;;;-0.50;89.60;;;;;;5032388;28;20086;-79
2021/04/14 01:07:40;;;;;;;6.20;3.40;;;-0.50;89.50;;;;;;5090727;28;20064;-81
2021/04/14 01:10:06;;;;;;;9.32;3.58;;;-0.50;89.40;;;;;;5054110;28;20074;-80
2021/04/14 01:12:32;;;;;;;10.80;4.38;;;-0.50;89.60;;;;;;5039482;28;20027;-81
2021/04/14 01:14:58;;;;;;;13.02;4.72;;;-0.60;89.40;;;;;;5073367;28;20116;-80
2021/04/14 01:17:24;;;;;;;13.30;4.95;;;-0.60;90.10;;;;;;5068189;28;20463;-80
2021/04/14 01:19:50;;;;;;;17.05;5.60;;;-0.60;89.80;;;;;;5056547;28;20063;-80
2021/04/14 01:22:16;;;;;;;9.48;4.70;;;-0.50;90.00;;;;;;5069137;28;20426;-81
2021/04/14 01:24:41;;;;;;;13.05;5.60;;;-0.50;90.00;;;;;;5061102;28;20483;-81
2021/04/14 01:27:08;;;;;;;15.10;5.07;;;-0.50;90.00;;;;;;5065584;28;20482;-81
2021/04/14 01:29:34;;;;;;;9.50;5.30;;;-0.50;90.00;;;;;;5057826;28;20036;-79
2021/04/14 01:32:00;;;;;;;9.70;5.15;;;-0.50;90.10;;;;;;5039756;28;20027;-78
2021/04/14 01:34:26;;;;;;;11.93;5.22;;;-0.50;90.10;;;;;;5057323;28;20458;-81
2021/04/14 01:36:52;;;;;;;9.90;5.22;;;-0.40;90.10;;;;;;5037148;28;20040;-81
2021/04/14 01:39:18;;;;;;;17.52;4.80;;;-0.40;90.20;;;;;;5037166;28;20043;-81
2021/04/14 01:41:44;;;;;;;12.55;5.05;;;-0.40;90.20;;;;;;5068073;28;20464;-82
2021/04/14 01:44:10;;;;;;;18.95;5.30;;;-0.40;90.20;;;;;;5055819;28;20032;-80
2021/04/14 01:46:41;;;;;;;11.80;4.18;;;-0.40;90.20;;;;;;5067337;28;20059;-80
2021/04/14 01:49:10;;;;;;;13.38;4.50;;;-0.40;90.20;;;;;;5067983;28;20488;-82
2021/04/14 01:51:36;;;;;;;10.27;4.90;;;-0.50;90.10;;;;;;5066549;28;20984;-79
2021/04/14 01:54:03;;;;;;;11.52;4.93;;;-0.40;90.10;;;;;;5070444;28;20024;-82
2021/04/14 01:56:29;;;;;;;12.05;5.05;;;-0.50;90.10;;;;;;5088243;28;20391;-80
2021/04/14 01:58:54;;;;;;;12.05;5.40;;;-0.50;90.10;;;;;;5050584;28;20032;-78
2021/04/14 02:01:20;;;;;;;8.88;4.80;;;-0.50;90.10;;;;;;5084362;28;20059;-78
2021/04/14 02:03:46;;;;;;;12.95;5.70;;;-0.50;90.10;;;;;;5086831;28;20189;-78
2021/04/14 02:06:15;;;;;;;7.32;4.10;;;-0.50;90.10;;;;;;5078044;28;20406;-79
2021/04/14 02:08:42;;;;;;;12.98;4.53;;;-0.60;90.10;;;;;;5097067;28;20036;-80
2021/04/14 02:11:11;;;;;;;13.52;5.65;;;-0.50;90.10;;;;;;5099293;28;20092;-81
2021/04/14 02:13:40;;;;;;;11.35;5.70;;;-0.50;90.20;;;;;;5089849;28;20113;-81
2021/04/14 02:16:11;;;;;;;9.55;4.75;;;-0.50;90.30;;;;;;5097016;28;20096;-79
2021/04/14 02:18:49;;;;;;;13.40;5.18;;;-0.60;90.30;;;;;;5077818;28;20028;-78
2021/04/14 02:21:16;;;;;;;11.23;5.50;;;-0.60;90.30;;;;;;5078880;28;20474;-80
2021/04/14 02:23:42;;;;;;;11.90;5.80;;;-0.60;90.30;;;;;;5061033;28;20131;-78
2021/04/14 02:26:14;;;;;;;9.15;4.93;;;-0.60;90.40;;;;;;5077574;28;20028;-79
2021/04/14 02:28:42;;;;;;;10.95;5.00;;;-0.60;90.40;;;;;;5084907;28;20043;-79
2021/04/14 02:31:09;;;;;;;11.95;5.10;;;-0.60;90.40;;;;;;5080416;28;20036;-81
2021/04/14 02:33:36;;;;;;;11.82;4.90;;;-0.70;90.40;;;;;;5091531;28;20040;-79
2021/04/14 02:36:02;;;;;;;8.48;4.75;;;-0.70;90.40;;;;;;5085901;28;20440;-79
2021/04/14 02:38:28;;;;;;;12.55;5.15;;;-0.70;90.40;;;;;;5081931;28;20085;-81
2021/04/14 02:41:06;;;;;;;13.82;5.85;;;-0.70;90.50;;;;;;5085909;28;20101;-78
2021/04/14 02:43:53;;;;;;;9.85;5.15;;;-0.70;90.50;;;;;;5083463;28;20040;-77
2021/04/14 02:46:20;;;;;;;11.60;5.40;;;-0.70;90.50;;;;;;5099065;28;20039;-80
2021/04/14 02:48:50;;;;;;;11.25;6.45;;;-0.80;90.50;;;;;;5099309;28;20119;-80
2021/04/14 02:51:36;;;;;;;8.05;5.35;;;-0.80;90.40;;;;;;5080918;28;20060;-79
2021/04/14 02:54:03;;;;;;;11.60;6.55;;;-0.80;90.50;;;;;;5091772;28;20038;-81
2021/04/14 02:56:29;;;;;;;14.32;6.15;;;-0.80;90.50;;;;;;5051730;28;20094;-81
2021/04/14 02:58:54;;;;;;;19.92;6.50;;;-0.80;90.60;;;;;;5079163;28;20032;-78
2021/04/14 03:01:20;;;;;;;10.23;5.43;;;-0.80;90.70;;;;;;5046065;28;20032;-78
2021/04/14 03:03:46;;;;;;;10.48;6.15;;;-0.80;90.80;;;;;;5075994;28;20461;-79
2021/04/14 03:06:12;;;;;;;11.10;5.75;;;-0.80;90.70;;;;;;5076881;28;20085;-80
2021/04/14 03:08:38;;;;;;;9.82;5.88;;;-0.80;90.70;;;;;;5070687;28;20209;-79
2021/04/14 03:11:24;;;;;;;15.25;5.57;;;-0.90;90.70;;;;;;5063287;28;20044;-80
2021/04/14 03:13:54;;;;;;;12.50;5.50;;;-0.90;90.90;;;;;;5096456;28;20043;-80
2021/04/14 03:16:21;;;;;;;15.20;6.20;;;-0.90;90.80;;;;;;5072759;28;20041;-80
2021/04/14 03:18:47;;;;;;;14.52;6.22;;;-0.90;91.20;;;;;;5091137;28;20040;-79
2021/04/14 03:21:13;;;;;;;11.10;5.53;;;-0.90;90.90;;;;;;5087984;28;20042;-78
2021/04/14 03:23:39;;;;;;;10.07;5.50;;;-0.90;90.80;;;;;;5088665;28;20088;-80
2021/04/14 03:26:05;;;;;;;12.07;6.47;;;-1.00;90.80;;;;;;5045514;28;20072;-80
2021/04/14 03:28:31;;;;;;;10.63;5.65;;;-1.00;90.80;;;;;;5063943;28;20045;-79
2021/04/14 03:30:57;;;;;;;7.63;4.60;;;-1.00;90.90;;;;;;5068813;28;20039;-80
2021/04/14 03:33:23;;;;;;;9.20;5.75;;;-1.10;90.90;;;;;;5055607;28;20051;-80
2021/04/14 03:35:49;;;;;;;11.30;5.07;;;-1.00;91.30;;;;;;5050785;28;20429;-80
2021/04/14 03:38:15;;;;;;;10.35;5.13;;;-1.10;90.90;;;;;;5067797;28;20032;-77
2021/04/14 03:41:01;;;;;;;11.40;6.03;;;-1.10;91.00;;;;;;5046036;28;20036;-78
2021/04/14 03:43:29;;;;;;;13.95;5.93;;;-1.10;91.00;;;;;;5074631;28;20312;-78
2021/04/14 03:45:59;;;;;;;9.35;5.38;;;-1.10;91.00;;;;;;5073806;28;20479;-81
2021/04/14 03:48:25;;;;;;;11.55;6.35;;;-1.10;91.10;;;;;;5058968;28;20041;-81
2021/04/14 03:50:54;;;;;;;15.43;6.38;;;-1.20;91.10;;;;;;5061099;28;20038;-78
2021/04/14 03:53:27;;;;;;;11.95;6.78;;;-1.20;91.10;;;;;;5090751;28;20498;-78
2021/04/14 03:56:01;;;;;;;13.65;6.90;;;-1.20;91.20;;;;;;5085115;28;20062;-78
2021/04/14 03:58:29;;;;;;;14.52;6.70;;;-1.20;91.20;;;;;;5083572;28;20040;-81
2021/04/14 04:00:57;;;;;;;13.45;6.80;;;-1.20;91.20;;;;;;5082562;28;20107;-81
2021/04/14 04:03:25;;;;;;;11.63;6.55;;;-1.20;91.20;;;;;;5085122;28;20044;-81
2021/04/14 04:05:51;;;;;;;12.02;6.22;;;-1.30;91.20;;;;;;5093471;28;20036;-79
2021/04/14 04:08:37;;;;;;;12.55;7.25;;;-1.20;91.30;;;;;;5061613;28;20036;-80
2021/04/14 04:11:04;;;;;;;15.95;6.97;;;-1.30;91.20;;;;;;5088160;28;20398;-79
2021/04/14 04:13:31;;;;;;;14.32;5.93;;;-1.30;91.20;;;;;;5075396;28;20036;-80
2021/04/14 04:15:57;;;;;;;12.82;6.07;;;-1.30;91.30;;;;;;5060111;28;20028;-81
2021/04/14 04:18:23;;;;;;;13.98;7.10;;;-1.30;91.30;;;;;;5055723;28;20063;-80
2021/04/14 04:20:49;;;;;;;12.20;6.03;;;-1.30;91.30;;;;;;5071884;28;20111;-81
2021/04/14 04:23:15;;;;;;;16.55;6.80;;;-1.30;91.30;;;;;;5071134;28;20252;-80
2021/04/14 04:25:41;;;;;;;18.30;7.43;;;-1.30;91.40;;;;;;5066803;28;20033;-81
2021/04/14 04:28:07;;;;;;;12.07;6.22;;;-1.30;91.50;;;;;;5068850;28;20418;-78
2021/04/14 04:30:34;;;;;;;16.17;7.18;;;-1.30;91.50;;;;;;5071255;28;20036;-80
2021/04/14 04:33:01;;;;;;;17.55;7.40;;;-1.30;91.50;;;;;;5067820;28;20124;-78
2021/04/14 04:35:29;;;;;;;14.00;7.13;;;-1.30;91.40;;;;;;5073108;28;20052;-81
2021/04/14 04:37:58;;;;;;;21.38;7.30;;;-1.30;91.40;;;;;;5078736;28;20040;-81
2021/04/14 04:40:25;;;;;;;15.18;6.22;;;-1.20;91.60;;;;;;5075170;28;20237;-79
2021/04/14 04:42:51;;;;;;;14.73;8.45;;;-1.20;91.50;;;;;;5081937;28;20032;-78
2021/04/14 04:45:19;;;;;;;19.67;8.23;;;-1.20;91.40;;;;;;5062940;28;20038;-79
2021/04/14 04:47:46;;;;;;;21.17;7.57;;;-1.20;91.50;;;;;;5074535;28;20242;-80
2021/04/14 04:50:35;;;;;;;19.27;9.90;;;-1.20;91.50;;;;;;5050437;28;20048;-81
2021/04/14 04:53:09;;;;;;;19.52;8.80;;;-1.20;91.60;;;;;;5086782;28;20093;-81
2021/04/14 04:55:35;;;;;;;18.65;8.88;;;-1.10;91.60;;;;;;5087375;28;20434;-81
2021/04/14 04:58:01;;;;;;;16.25;8.23;;;-1.10;91.90;;;;;;5061245;28;20036;-82
2021/04/14 05:00:27;;;;;;;16.55;8.27;;;-1.10;91.60;;;;;;5073315;28;20347;-81
2021/04/14 05:02:54;;;;;;;19.95;8.80;;;-1.00;91.60;;;;;;5076278;28;20033;-81
2021/04/14 05:05:25;;;;;;;19.85;9.20;;;-1.00;91.60;;;;;;5074926;28;20063;-80
2021/04/14 05:07:51;;;;;;;23.70;10.20;;;-1.00;91.70;;;;;;5075949;28;20479;-82
2021/04/14 05:10:17;;;;;;;16.00;8.55;;;-0.90;91.70;;;;;;5073874;28;20032;-82
2021/04/14 05:12:43;;;;;;;18.33;9.07;;;-0.90;91.70;;;;;;5080675;28;20031;-82
2021/04/14 05:15:11;;;;;;;16.27;7.60;;;-0.80;91.70;;;;;;5090441;28;20032;-79
2021/04/14 05:17:37;;;;;;;21.95;8.30;;;-0.90;91.70;;;;;;5033744;28;20380;-79
2021/04/14 05:20:05;;;;;;;17.08;8.65;;;-0.80;91.70;;;;;;5051445;28;20434;-82
2021/04/14 05:22:31;;;;;;;20.92;8.25;;;-0.80;91.70;;;;;;5089055;28;20036;-82
2021/04/14 05:24:57;;;;;;;13.30;7.13;;;-0.80;91.70;;;;;;5074223;28;20242;-82
2021/04/14 05:27:24;;;;;;;12.98;8.20;;;-0.80;91.70;;;;;;5071571;28;20261;-80
2021/04/14 05:29:50;;;;;;;12.20;7.78;;;-0.70;91.70;;;;;;5074672;28;20039;-80
2021/04/14 05:32:17;;;;;;;13.35;7.55;;;-0.80;91.70;;;;;;5053050;28;20040;-79
2021/04/14 05:34:43;;;;;;;19.30;7.95;;;-0.70;91.80;;;;;;5077479;28;20035;-78
2021/04/14 05:37:09;;;;;;;15.35;7.88;;;-0.80;91.80;;;;;;5076078;28;20558;-79
2021/04/14 05:39:35;;;;;;;13.23;7.15;;;-0.70;91.80;;;;;;5067325;28;20065;-81
2021/04/14 05:42:01;;;;;;;16.33;8.73;;;-0.70;91.70;;;;;;5070109;28;20525;-79
2021/04/14 05:44:27;;;;;;;16.77;8.98;;;-0.70;91.70;;;;;;5069891;28;20032;-77
2021/04/14 05:46:53;;;;;;;16.98;7.90;;;-0.70;91.80;;;;;;5077466;28;20049;-77
2021/04/14 05:49:18;;;;;;;15.32;8.40;;;-0.70;91.80;;;;;;5062529;28;20044;-79
2021/04/14 05:51:44;;;;;;;20.85;9.80;;;-0.60;91.80;;;;;;5035431;28;20029;-79
2021/04/14 05:54:10;;;;;;;19.10;10.00;;;-0.60;91.90;;;;;;5050276;28;20502;-80
2021/04/14 05:56:36;;;;;;;18.45;9.45;;;-0.50;92.00;;;;;;5067495;28;20483;-79
2021/04/14 05:59:02;;;;;;;17.40;9.35;;;-0.40;92.00;;;;;;5068673;28;20085;-82
2021/04/14 06:01:31;;;;;;;16.35;9.27;;;-0.30;91.90;;;;;;5060424;28;20036;-80
2021/04/14 06:03:57;;;;;;;17.65;9.57;;;-0.30;91.90;;;;;;5060386;28;20032;-78
2021/04/14 06:06:25;;;;;;;23.95;10.18;;;-0.10;92.00;;;;;;5064014;28;20040;-82
2021/04/14 06:08:52;;;;;;;18.90;10.00;;;-0.10;92.10;;;;;;5067827;28;20055;-80
2021/04/14 06:11:18;;;;;;;17.55;8.52;;;0.00;92.00;;;;;;5049165;28;20081;-82
2021/04/14 06:13:45;;;;;;;17.17;8.32;;;0.10;92.00;;;;;;5061966;28;20113;-82
2021/04/14 06:16:13;;;;;;;17.70;9.43;;;0.10;92.00;;;;;;5045786;28;20491;-82
2021/04/14 06:18:40;;;;;;;16.55;10.00;;;0.30;92.00;;;;;;5044120;28;20028;-82
2021/04/14 06:21:06;;;;;;;16.60;8.65;;;0.20;92.00;;;;;;5078011;28;20036;-83
2021/04/14 06:23:33;;;;;;;18.73;8.82;;;0.30;92.00;;;;;;5070568;28;20032;-80
2021/04/14 06:26:12;;;;;;;15.88;9.15;;;0.40;92.00;;;;;;5081700;28;20028;-80
2021/04/14 06:28:40;;;;;;;17.17;9.60;;;0.50;92.00;;;;;;5083971;28;20024;-81
2021/04/14 06:31:07;;;;;;;20.25;9.30;;;0.60;92.00;;;;;;5079414;28;20033;-80
2021/04/14 06:33:37;;;;;;;13.98;7.35;;;0.60;92.00;;;;;;5048469;28;20554;-81
2021/04/14 06:36:06;;;;;;;14.98;8.25;;;0.70;92.00;;;;;;5068894;28;20066;-79
2021/04/14 06:38:41;;;;;;;15.15;9.07;;;0.80;92.00;;;;;;5050033;28;20040;-81
2021/04/14 06:41:48;;;;;;;19.92;9.13;;;0.90;92.00;;;;;;5074498;28;20028;-81
2021/04/14 06:44:35;;;;;;;18.33;8.70;;;1.00;92.10;;;;;;5071276;28;20044;-81
2021/04/14 06:47:11;;;;;;;14.90;7.10;;;1.10;92.10;;;;;;5067852;28;20437;-82
2021/04/14 06:49:54;;;;;;;13.15;6.85;;;1.20;92.00;;;;;;5067923;28;20426;-79
2021/04/14 06:52:56;;;;;;;16.08;8.00;;;1.40;92.00;;;;;;5067680;28;20036;-82
2021/04/14 06:55:31;;;;;;;11.82;6.70;;;1.40;91.90;;;;;;5034861;28;20041;-81
2021/04/14 06:58:04;;;;;;;12.50;6.53;;;1.60;92.00;;;;;;5053327;28;20061;-80
2021/04/14 07:00:55;;;;;;;9.48;6.20;;;1.70;92.00;;;;;;5071268;28;20024;-81
2021/04/14 07:03:30;;;;;;;11.90;6.22;;;1.90;92.00;;;;;;5083447;28;20048;-80
2021/04/14 07:06:02;;;;;;;12.90;7.30;;;2.00;91.90;;;;;;5085517;28;20087;-80
2021/04/14 07:08:34;;;;;;;11.27;6.45;;;2.10;91.90;;;;;;5084526;28;20036;-80
2021/04/14 07:11:04;;;;;;;13.40;6.00;;;2.30;92.00;;;;;;5084656;28;20131;-80
2021/04/14 07:13:33;;;;;;;15.38;5.32;;;2.40;92.00;;;;;;5080205;28;20258;-80
2021/04/14 07:16:17;;;;;;;8.85;5.90;;;2.50;92.00;;;;;;5076606;28;20035;-80
2021/04/14 07:19:11;;;;;;;17.10;5.57;;;2.70;91.90;;;;;;5088426;28;20089;-80
2021/04/14 07:21:47;;;;;;;3.75;2.60;;;2.90;91.90;;;;;;5090952;28;20084;-80
2021/04/14 07:24:33;;;;;;;7.57;3.13;;;3.10;91.90;;;;;;5101275;28;20028;-80
2021/04/14 07:27:14;;;;;;;7.70;2.80;;;3.40;91.80;;;;;;5096485;28;20534;-80
2021/04/14 07:29:48;;;;;;;7.35;2.20;;;3.60;91.60;;;;;;5094013;28;20040;-80
2021/04/14 07:32:58;;;;;;;6.07;1.95;;;3.80;91.40;;;;;;5066076;28;20071;-80
2021/04/14 07:35:48;;;;;;;9.27;1.98;;;4.10;91.00;;;;;;5080081;28;20101;-80
2021/04/14 07:38:33;;;;;;;7.25;2.30;;;4.30;90.60;;;;;;5080239;28;20038;-80
2021/04/14 07:40:59;;;;;;;5.60;1.88;;;4.50;90.10;;;;;;5080427;28;20577;-80
2021/04/14 07:43:53;;;;;;;9.82;2.28;;;4.70;90.10;;;;;;5085347;28;20060;-80
2021/04/14 07:46:24;;;;;;;5.03;1.63;;;4.90;89.30;;;;;;5086120;28;20135;-79
2021/04/14 07:48:54;;;;;;;13.43;1.90;;;5.00;88.40;;;;;;5089062;28;20040;-79
2021/04/14 07:51:21;;;;;;;9.90;1.35;;;5.20;88.10;;;;;;5099758;28;20036;-80
2021/04/14 07:54:00;;;;;;;7.80;1.70;;;5.30;87.70;;;;;;5093485;28;20134;-81
2021/04/14 07:56:27;;;;;;;6.63;1.52;;;5.30;86.70;;;;;;5087459;28;20309;-81
2021/04/14 07:58:59;;;;;;;8.52;1.40;;;5.50;85.80;;;;;;5072673;28;20058;-80
2021/04/14 08:01:29;;;;;;;4.63;1.00;;;5.60;85.40;;;;;;5076387;28;20039;-82
2021/04/14 08:04:32;;;;;;;10.73;0.90;;;5.70;84.80;;;;;;5074468;28;20030;-80
2021/04/14 08:07:20;;;;;;;4.50;1.20;;;5.80;83.30;;;;;;5073678;28;20096;-79
2021/04/14 08:09:50;;;;;;;5.53;1.42;;;5.90;82.70;;;;;;5068698;28;20063;-80
2021/04/14 08:12:30;;;;;;;5.03;1.15;;;6.00;82.50;;;;;;5069596;28;20039;-83
2021/04/14 08:15:12;;;;;;;7.75;1.10;;;6.20;81.70;;;;;;5068222;28;20283;-82
2021/04/14 08:17:38;;;;;;;5.80;0.93;;;6.30;80.40;;;;;;5063646;28;20044;-83
2021/04/14 08:20:08;;;;;;;6.60;1.00;;;6.50;79.80;;;;;;5054423;28;20486;-81
2021/04/14 08:22:34;;;;;;;4.07;1.00;;;6.60;78.90;;;;;;5080420;28;20040;-83
2021/04/14 08:25:07;;;;;;;10.20;1.30;;;6.80;77.10;;;;;;5077611;28;20038;-82
2021/04/14 08:27:38;;;;;;;;;;;6.90;75.30;;;;;;5092236;28;20044;-80
2021/04/14 08:30:16;;;;;;;4.15;1.00;;;7.00;76.80;;;;;;5090398;28;19942;-80
2021/04/14 08:32:45;;;;;;;7.00;1.50;;;7.20;75.90;;;;;;5088239;28;20386;-80
2021/04/14 08:35:26;;;;;;;3.35;0.98;;;7.30;74.90;;;;;;5074805;28;20455;-81
2021/04/14 08:38:10;;;;;;;10.10;1.05;;;7.40;74.50;;;;;;5063500;28;20530;-81
2021/04/14 08:40:42;;;;;;;6.07;1.17;;;7.40;73.90;;;;;;5072556;28;20447;-81
2021/04/14 08:43:20;;;;;;;6.68;1.33;;;7.40;73.00;;;;;;5064959;28;20039;-80
2021/04/14 08:45:46;;;;;;;6.60;1.10;;;7.40;72.40;;;;;;5065065;28;20029;-81
2021/04/14 08:48:21;;;;;;;8.43;1.20;;;7.60;73.90;;;;;;5064241;28;20082;-80
2021/04/14 08:50:54;;;;;;;5.45;0.90;;;7.70;72.50;;;;;;5064658;28;20160;-80
2021/04/14 08:53:35;;;;;;;5.80;0.95;;;7.80;71.10;;;;;;5060279;28;20582;-81
2021/04/14 08:56:02;;;;;;;6.78;1.20;;;7.60;71.00;;;;;;5062580;28;20028;-79
2021/04/14 08:58:28;;;;;;;9.50;1.40;;;7.50;71.80;;;;;;5057837;28;20513;-80
2021/04/14 09:00:55;;;;;;;12.00;1.17;;;7.40;71.40;;;;;;5057635;28;20048;-80
2021/04/14 09:03:23;;;;;;;3.28;0.90;;;7.30;71.80;;;;;;5068203;28;20430;-80
2021/04/14 09:05:54;;;;;;;8.45;1.27;;;7.30;71.70;;;;;;5067571;28;20032;-80
2021/04/14 09:08:23;;;;;;;3.40;0.85;;;7.50;72.10;;;;;;5073464;28;20410;-80
2021/04/14 09:11:04;;;;;;;10.77;1.15;;;7.70;70.50;;;;;;5069952;28;20036;-81
2021/04/14 09:13:47;;;;;;;6.63;1.10;;;7.90;70.40;;;;;;5070061;28;20032;-80
2021/04/14 09:16:27;;;;;;;4.72;1.10;;;8.00;69.30;;;;;;5067358;28;20067;-81
2021/04/14 09:19:30;;;;;;;6.20;1.05;;;7.90;68.30;;;;;;5065223;28;20041;-80
2021/04/14 09:22:01;;;;;;;4.78;0.93;;;7.80;67.90;;;;;;5071059;28;20055;-80
2021/04/14 09:24:34;;;;;;;4.10;0.88;;;7.70;68.30;;;;;;5069557;28;20037;-81
2021/04/14 09:27:02;;;;;;;4.63;0.80;;;7.80;68.20;;;;;;5083273;28;20051;-81
2021/04/14 09:29:43;;;;;;;3.03;1.00;;;8.00;68.50;;;;;;5093724;28;20039;-80
2021/04/14 09:32:12;;;;;;;8.40;1.50;;;8.20;66.50;;;;;;5085614;28;20032;-80
2021/04/14 09:34:49;;;;;;;6.63;1.00;;;8.40;67.00;;;;;;5077181;28;20039;-81
2021/04/14 09:37:18;;;;;;;2.92;0.80;;;8.70;66.90;;;;;;5073914;28;20056;-81
2021/04/14 09:39:51;;;;;;;7.65;0.95;;;9.00;66.60;;;;;;5072428;28;20037;-81
2021/04/14 09:42:22;;;;;;;4.95;1.02;;;9.20;66.10;;;;;;5077474;28;20097;-83
2021/04/14 09:44:55;;;;;;;6.57;1.10;;;9.20;65.50;;;;;;5081876;28;20088;-80
2021/04/14 09:47:30;;;;;;;21.23;2.33;;;9.10;65.40;;;;;;5075224;28;20618;-81
2021/04/14 09:49:58;;;;;;;6.15;1.17;;;8.80;65.70;;;;;;5076560;28;20040;-81
2021/04/14 09:52:33;;;;;;;9.90;1.38;;;8.50;66.50;;;;;;5077382;28;20228;-81
2021/04/14 09:55:26;;;;;;;9.10;1.45;;;8.30;66.50;;;;;;5072002;28;20048;-81
2021/04/14 09:57:53;;;;;;;5.22;1.15;;;8.10;67.00;;;;;;5090766;28;20051;-80
2021/04/14 10:00:25;;;;;;;5.28;1.00;;;8.00;68.50;;;;;;5080248;28;20055;-82
2021/04/14 10:02:57;;;;;;;6.47;1.17;;;7.90;68.70;;;;;;5093850;28;20036;-81
2021/04/14 10:05:32;;;;;;;5.57;1.02;;;8.00;69.40;;;;;;5088982;28;20036;-82
2021/04/14 10:08:00;;;;;;;7.60;1.08;;;8.20;69.20;;;;;;5090253;28;20039;-81
2021/04/14 10:10:27;;;;;;;7.15;1.50;;;8.40;69.70;;;;;;5096055;28;20035;-83
2021/04/14 10:12:53;;;;;;;6.45;1.33;;;8.50;68.10;;;;;;5085700;28;20032;-81
2021/04/14 10:15:38;;;;;;;5.15;0.95;;;8.50;67.30;;;;;;5087335;28;20036;-81
2021/04/14 10:18:06;;;;;;;4.45;0.90;;;8.50;66.00;;;;;;5081261;28;21180;-81
2021/04/14 10:20:36;;;;;;;6.15;0.90;;;8.60;66.60;;;;;;5082483;28;20040;-81
2021/04/14 10:23:05;;;;;;;7.45;1.05;;;8.60;65.40;;;;;;5067854;28;20037;-81
2021/04/14 10:25:42;;;;;;;4.63;1.00;;;8.70;65.30;;;;;;5076576;28;20032;-81
2021/04/14 10:28:18;;;;;;;4.63;0.85;;;8.80;64.90;;;;;;5071944;28;20092;-81
2021/04/14 10:30:59;;;;;;;4.68;1.13;;;8.90;64.70;;;;;;5069953;28;20098;-82
2021/04/14 10:33:26;;;;;;;3.72;1.00;;;9.00;61.50;;;;;;5069921;28;20036;-82
2021/04/14 10:35:52;;;;;;;4.60;1.15;;;9.00;62.20;;;;;;5073253;28;20324;-81
2021/04/14 10:38:33;;;;;;;3.78;0.90;;;9.00;61.50;;;;;;5063197;28;20068;-80
2021/04/14 10:40:59;;;;;;;2.25;0.65;;;8.90;61.30;;;;;;5070721;28;20082;-83
2021/04/14 10:43:28;;;;;;;5.07;0.98;;;8.90;62.00;;;;;;5085581;28;20099;-81
2021/04/14 10:46:05;;;;;;;4.60;1.15;;;9.00;58.60;;;;;;5090425;28;20028;-81
2021/04/14 10:48:39;;;;;;;4.05;0.98;;;8.90;59.40;;;;;;5094395;28;20042;-81
2021/04/14 10:51:18;;;;;;;3.20;0.90;;;9.10;59.60;;;;;;5097499;28;20036;-81
2021/04/14 10:53:46;;;;;;;7.85;1.00;;;9.20;59.20;;;;;;5099577;28;20042;-80
2021/04/14 10:56:23;;;;;;;4.32;0.80;;;9.40;59.00;;;;;;5090108;28;20032;-82
2021/04/14 10:58:51;;;;;;;4.88;1.13;;;9.60;59.60;;;;;;5084016;28;20028;-82
2021/04/14 11:01:20;;;;;;;1.63;0.52;;;9.60;58.70;;;;;;5073086;28;20123;-80
2021/04/14 11:04:04;;;;;;;4.90;0.80;;;9.50;57.80;;;;;;5085170;28;20047;-81
2021/04/14 11:06:32;;;;;;;4.63;1.00;;;9.30;58.50;;;;;;5083823;28;20343;-82
2021/04/14 11:08:59;;;;;;;5.55;1.30;;;9.20;59.90;;;;;;5093274;28;20101;-81
2021/04/14 11:11:25;;;;;;;9.07;1.30;;;9.00;61.10;;;;;;5088954;28;20039;-80
2021/04/14 11:13:51;;;;;;;5.35;1.10;;;8.90;62.40;;;;;;5096966;28;20028;-85
2021/04/14 11:16:17;;;;;;;6.85;1.30;;;8.70;63.10;;;;;;5087481;28;20036;-82
2021/04/14 11:18:43;;;;;;;5.90;0.90;;;8.60;63.80;;;;;;5078136;28;20040;-81
2021/04/14 11:21:30;;;;;;;6.22;0.90;;;8.40;64.00;;;;;;5069605;28;20373;-82
2021/04/14 11:24:02;;;;;;;7.82;1.20;;;8.30;65.20;;;;;;5057621;28;20033;-80
2021/04/14 11:26:28;;;;;;;5.38;0.80;;;8.30;65.80;;;;;;5076821;28;20064;-82
2021/04/14 11:28:56;;;;;;;6.28;1.13;;;8.50;66.60;;;;;;5076453;28;20089;-81
2021/04/14 11:31:41;;;;;;;8.13;1.02;;;8.90;66.70;;;;;;5069314;28;20053;-82
2021/04/14 11:34:31;;;;;;;4.05;0.98;;;9.10;66.10;;;;;;5074267;28;20032;-81
2021/04/14 11:37:00;;;;;;;4.35;1.38;;;9.20;65.10;;;;;;5071770;28;20036;-84
2021/04/14 11:39:29;;;;;;;2.15;1.10;;;9.10;65.00;;;;;;5077630;28;20040;-82
2021/04/14 11:42:13;;;;;;;5.15;0.93;;;9.10;63.70;;;;;;5079774;28;20040;-83
2021/04/14 11:44:42;;;;;;;2.83;1.20;;;8.90;63.60;;;;;;5070726;28;20036;-86
2021/04/14 11:47:24;;;;;;;2.45;0.98;;;8.70;64.60;;;;;;5069681;28;20036;-82
2021/04/14 11:49:51;;;;;;;3.63;1.00;;;8.50;65.30;;;;;;5068358;28;20039;-83
2021/04/14 11:52:30;;;;;;;6.22;0.93;;;8.30;65.90;;;;;;5071928;28;20032;-81
2021/04/14 11:54:57;;;;;;;4.40;1.27;;;8.10;66.60;;;;;;5076649;28;20514;-80
2021/04/14 11:57:49;;;;;;;6.80;0.95;;;8.10;67.40;;;;;;5068980;28;20075;-81
2021/04/14 12:00:20;;;;;;;8.73;1.05;;;8.10;66.00;;;;;;5074073;28;20102;-80
2021/04/14 12:02:49;;;;;;;1.50;0.50;;;8.00;66.60;;;;;;5080582;28;20024;-81
2021/04/14 12:05:15;;;;;;;2.35;0.70;;;8.10;67.00;;;;;;5065288;28;20286;-82
2021/04/14 12:07:42;;;;;;;2.90;0.98;;;8.10;66.90;;;;;;5052129;28;20249;-81
2021/04/14 12:10:08;;;;;;;2.85;0.60;;;8.20;66.50;;;;;;5075178;28;20037;-82
2021/04/14 12:12:34;;;;;;;2.58;0.90;;;8.50;67.20;;;;;;5076224;28;20215;-81
2021/04/14 12:15:00;;;;;;;2.67;0.80;;;8.70;66.70;;;;;;5078320;28;20051;-83
2021/04/14 12:17:26;;;;;;;4.47;0.80;;;9.00;66.60;;;;;;5088396;28;20032;-82
2021/04/14 12:19:52;;;;;;;1.48;0.70;;;9.20;65.30;;;;;;5068497;28;20333;-81
2021/04/14 12:22:19;;;;;;;6.18;0.80;;;9.30;64.90;;;;;;5050537;28;21525;-81
2021/04/14 12:24:46;;;;;;;3.75;0.90;;;9.30;64.60;;;;;;5076298;28;20035;-81
2021/04/14 12:27:12;;;;;;;4.95;1.10;;;9.30;63.80;;;;;;5074435;28;20479;-81
2021/04/14 12:29:39;;;;;;;2.97;0.93;;;9.30;62.80;;;;;;5073993;28;20036;-81
2021/04/14 12:32:08;;;;;;;3.88;0.80;;;9.40;63.70;;;;;;5068210;28;20474;-81
2021/04/14 12:34:34;;;;;;;4.22;1.08;;;9.60;62.90;;;;;;5067248;28;20059;-81
2021/04/14 12:37:00;;;;;;;4.53;1.10;;;10.20;64.00;;;;;;5056886;28;20040;-81
2021/04/14 12:39:26;;;;;;;2.42;0.80;;;10.70;63.00;;;;;;5073801;28;20043;-81
2021/04/14 12:41:52;;;;;;;3.80;0.88;;;10.90;62.10;;;;;;5069756;28;20828;-81
2021/04/14 12:44:21;;;;;;;3.90;0.82;;;10.80;61.30;;;;;;5081765;28;20078;-81
2021/04/14 12:46:48;;;;;;;3.33;0.70;;;10.70;59.70;;;;;;5075792;28;20033;-82
2021/04/14 12:49:17;;;;;;;4.78;0.90;;;10.50;59.40;;;;;;5074258;28;20037;-81
2021/04/14 12:51:54;;;;;;;2.28;0.93;;;10.40;58.40;;;;;;5066391;28;20394;-81
2021/04/14 12:54:24;;;;;;;3.47;0.93;;;10.20;58.30;;;;;;5066909;28;20045;-81
2021/04/14 12:56:54;;;;;;;3.17;0.90;;;10.00;57.90;;;;;;5066510;28;20138;-81
2021/04/14 12:59:39;;;;;;;4.35;1.05;;;9.90;57.80;;;;;;5075513;28;20411;-81
2021/04/14 13:02:24;;;;;;;3.00;0.63;;;9.70;58.60;;;;;;5079515;28;20024;-81
2021/04/14 13:05:06;;;;;;;5.38;0.82;;;9.60;58.30;;;;;;5069054;28;20503;-82
2021/04/14 13:07:47;;;;;;;7.88;0.88;;;9.60;58.10;;;;;;5070437;28;20047;-81